sensor_id;sensor_type;location;lat;lon;timestamp;P1;durP1;ratioP1;P2;durP2;ratioP2
22713;SDS011;11524;50.846;4.326;2022-09-25T00:01:32;1.70;;;1.10;;
22713;SDS011;11524;50.846;4.326;2022-09-25T00:03:58;2.97;;;1.30;;
22713;SDS011;11524;50.846;4.326;2022-09-25T00:06:24;1.73;;;1.00;;
22713;SDS011;11524;50.846;4.326;2022-09-25T00:08:52;2.65;;;1.30;;
22713;SDS011;11524;50.846;4.326;2022-09-25T00:11:19;1.95;;;1.33;;
22713;SDS011;11524;50.846;4.326;2022-09-25T00:13:46;2.25;;;1.30;;
22713;SDS011;11524;50.846;4.326;2022-09-25T00:16:14;3.05;;;1.20;;
22713;SDS011;11524;50.846;4.326;2022-09-25T00:18:44;2.55;;;1.23;;
22713;SDS011;11524;50.846;4.326;2022-09-25T00:21:29;1.75;;;1.20;;
22713;SDS011;11524;50.846;4.326;2022-09-25T00:23:56;2.58;;;1.13;;
22713;SDS011;11524;50.846;4.326;2022-09-25T00:26:24;2.72;;;1.13;;
22713;SDS011;11524;50.846;4.326;2022-09-25T00:28:54;2.15;;;1.10;;
22713;SDS011;11524;50.846;4.326;2022-09-25T00:31:21;3.70;;;1.33;;
22713;SDS011;11524;50.846;4.326;2022-09-25T00:33:48;2.10;;;1.20;;
22713;SDS011;11524;50.846;4.326;2022-09-25T00:36:15;2.45;;;1.40;;
22713;SDS011;11524;50.846;4.326;2022-09-25T00:38:41;2.70;;;1.40;;
22713;SDS011;11524;50.846;4.326;2022-09-25T00:41:07;2.85;;;1.27;;
22713;SDS011;11524;50.846;4.326;2022-09-25T00:43:40;2.72;;;1.13;;
22713;SDS011;11524;50.846;4.326;2022-09-25T00:46:26;2.88;;;1.20;;
22713;SDS011;11524;50.846;4.326;2022-09-25T00:49:03;2.75;;;1.10;;
22713;SDS011;11524;50.846;4.326;2022-09-25T00:56:51;1.95;;;1.10;;
22713;SDS011;11524;50.846;4.326;2022-09-25T00:59:21;1.63;;;1.08;;
22713;SDS011;11524;50.846;4.326;2022-09-25T01:01:52;2.78;;;1.33;;
22713;SDS011;11524;50.846;4.326;2022-09-25T01:04:19;1.80;;;1.08;;
22713;SDS011;11524;50.846;4.326;2022-09-25T01:06:46;2.15;;;1.35;;
22713;SDS011;11524;50.846;4.326;2022-09-25T01:09:13;2.25;;;1.30;;
22713;SDS011;11524;50.846;4.326;2022-09-25T01:11:40;4.07;;;1.40;;
22713;SDS011;11524;50.846;4.326;2022-09-25T01:14:05;2.22;;;1.30;;
22713;SDS011;11524;50.846;4.326;2022-09-25T01:25:15;2.20;;;1.10;;
22713;SDS011;11524;50.846;4.326;2022-09-25T01:31:15;3.28;;;1.20;;
22713;SDS011;11524;50.846;4.326;2022-09-25T01:33:47;2.92;;;1.00;;
22713;SDS011;11524;50.846;4.326;2022-09-25T01:36:27;2.33;;;1.10;;
22713;SDS011;11524;50.846;4.326;2022-09-25T01:41:32;3.08;;;1.13;;
22713;SDS011;11524;50.846;4.326;2022-09-25T01:44:05;1.67;;;1.10;;
22713;SDS011;11524;50.846;4.326;2022-09-25T01:46:43;1.88;;;1.20;;
22713;SDS011;11524;50.846;4.326;2022-09-25T01:49:15;1.17;;;1.08;;
22713;SDS011;11524;50.846;4.326;2022-09-25T01:51:54;1.90;;;1.15;;
22713;SDS011;11524;50.846;4.326;2022-09-25T01:54:25;2.50;;;1.08;;
22713;SDS011;11524;50.846;4.326;2022-09-25T01:57:01;1.38;;;1.10;;
22713;SDS011;11524;50.846;4.326;2022-09-25T01:59:38;2.05;;;0.95;;
22713;SDS011;11524;50.846;4.326;2022-09-25T02:02:10;2.00;;;1.30;;
22713;SDS011;11524;50.846;4.326;2022-09-25T02:04:41;1.88;;;1.10;;
22713;SDS011;11524;50.846;4.326;2022-09-25T02:07:13;1.85;;;1.00;;
22713;SDS011;11524;50.846;4.326;2022-09-25T02:09:46;1.63;;;0.82;;
22713;SDS011;11524;50.846;4.326;2022-09-25T02:12:30;1.75;;;1.00;;
22713;SDS011;11524;50.846;4.326;2022-09-25T02:15:02;1.92;;;1.13;;
22713;SDS011;11524;50.846;4.326;2022-09-25T02:17:39;2.17;;;1.20;;
22713;SDS011;11524;50.846;4.326;2022-09-25T02:20:28;2.78;;;1.20;;
22713;SDS011;11524;50.846;4.326;2022-09-25T02:23:04;2.33;;;1.00;;
22713;SDS011;11524;50.846;4.326;2022-09-25T02:28:38;1.52;;;1.00;;
22713;SDS011;11524;50.846;4.326;2022-09-25T02:31:06;3.42;;;1.20;;
22713;SDS011;11524;50.846;4.326;2022-09-25T02:33:35;3.42;;;1.17;;
22713;SDS011;11524;50.846;4.326;2022-09-25T02:36:01;2.13;;;1.08;;
22713;SDS011;11524;50.846;4.326;2022-09-25T02:38:28;1.92;;;0.82;;
22713;SDS011;11524;50.846;4.326;2022-09-25T02:41:01;4.07;;;1.20;;
22713;SDS011;11524;50.846;4.326;2022-09-25T02:43:38;2.28;;;1.23;;
22713;SDS011;11524;50.846;4.326;2022-09-25T02:46:12;2.47;;;1.17;;
22713;SDS011;11524;50.846;4.326;2022-09-25T02:48:50;2.72;;;1.10;;
22713;SDS011;11524;50.846;4.326;2022-09-25T02:54:16;1.17;;;0.80;;
22713;SDS011;11524;50.846;4.326;2022-09-25T02:56:59;2.38;;;1.20;;
22713;SDS011;11524;50.846;4.326;2022-09-25T02:59:34;1.90;;;0.88;;
22713;SDS011;11524;50.846;4.326;2022-09-25T03:02:03;2.33;;;1.10;;
22713;SDS011;11524;50.846;4.326;2022-09-25T03:04:30;1.92;;;1.27;;
22713;SDS011;11524;50.846;4.326;2022-09-25T03:07:00;1.50;;;0.90;;
22713;SDS011;11524;50.846;4.326;2022-09-25T03:09:26;2.70;;;1.10;;
22713;SDS011;11524;50.846;4.326;2022-09-25T03:11:59;1.77;;;1.10;;
22713;SDS011;11524;50.846;4.326;2022-09-25T03:14:28;3.00;;;1.33;;
22713;SDS011;11524;50.846;4.326;2022-09-25T03:16:54;2.10;;;1.10;;
22713;SDS011;11524;50.846;4.326;2022-09-25T03:19:21;2.85;;;1.00;;
22713;SDS011;11524;50.846;4.326;2022-09-25T03:21:48;1.75;;;1.05;;
22713;SDS011;11524;50.846;4.326;2022-09-25T03:24:15;3.13;;;1.20;;
22713;SDS011;11524;50.846;4.326;2022-09-25T03:26:41;2.97;;;0.93;;
22713;SDS011;11524;50.846;4.326;2022-09-25T03:29:07;3.90;;;1.20;;
22713;SDS011;11524;50.846;4.326;2022-09-25T03:31:32;1.40;;;0.90;;
22713;SDS011;11524;50.846;4.326;2022-09-25T03:33:59;2.47;;;1.20;;
22713;SDS011;11524;50.846;4.326;2022-09-25T03:36:26;3.72;;;1.20;;
22713;SDS011;11524;50.846;4.326;2022-09-25T03:38:54;6.60;;;1.35;;
22713;SDS011;11524;50.846;4.326;2022-09-25T03:41:24;2.22;;;0.98;;
22713;SDS011;11524;50.846;4.326;2022-09-25T03:43:51;3.55;;;1.02;;
22713;SDS011;11524;50.846;4.326;2022-09-25T03:46:22;3.47;;;1.13;;
22713;SDS011;11524;50.846;4.326;2022-09-25T03:48:52;2.45;;;1.00;;
22713;SDS011;11524;50.846;4.326;2022-09-25T03:51:19;3.97;;;1.15;;
22713;SDS011;11524;50.846;4.326;2022-09-25T03:53:45;2.75;;;1.42;;
22713;SDS011;11524;50.846;4.326;2022-09-25T03:56:13;4.22;;;1.10;;
22713;SDS011;11524;50.846;4.326;2022-09-25T03:58:41;2.22;;;0.95;;
22713;SDS011;11524;50.846;4.326;2022-09-25T04:01:07;2.60;;;1.10;;
22713;SDS011;11524;50.846;4.326;2022-09-25T04:03:35;3.85;;;1.10;;
22713;SDS011;11524;50.846;4.326;2022-09-25T04:06:02;1.95;;;1.20;;
22713;SDS011;11524;50.846;4.326;2022-09-25T04:08:34;1.83;;;0.90;;
22713;SDS011;11524;50.846;4.326;2022-09-25T04:11:01;1.55;;;0.98;;
22713;SDS011;11524;50.846;4.326;2022-09-25T04:13:28;2.17;;;0.98;;
22713;SDS011;11524;50.846;4.326;2022-09-25T04:15:56;3.15;;;1.13;;
22713;SDS011;11524;50.846;4.326;2022-09-25T04:18:23;3.42;;;1.20;;
22713;SDS011;11524;50.846;4.326;2022-09-25T04:20:50;3.20;;;1.42;;
22713;SDS011;11524;50.846;4.326;2022-09-25T04:23:15;3.13;;;1.23;;
22713;SDS011;11524;50.846;4.326;2022-09-25T04:25:41;2.40;;;1.05;;
22713;SDS011;11524;50.846;4.326;2022-09-25T04:28:07;2.63;;;1.17;;
22713;SDS011;11524;50.846;4.326;2022-09-25T04:30:34;3.28;;;1.00;;
22713;SDS011;11524;50.846;4.326;2022-09-25T04:33:00;1.92;;;1.00;;
22713;SDS011;11524;50.846;4.326;2022-09-25T04:35:46;3.25;;;1.20;;
22713;SDS011;11524;50.846;4.326;2022-09-25T04:38:11;2.03;;;1.10;;
22713;SDS011;11524;50.846;4.326;2022-09-25T04:40:37;2.72;;;1.05;;
22713;SDS011;11524;50.846;4.326;2022-09-25T04:43:11;2.03;;;0.95;;
22713;SDS011;11524;50.846;4.326;2022-09-25T04:45:37;3.28;;;1.27;;
22713;SDS011;11524;50.846;4.326;2022-09-25T04:48:03;4.43;;;1.48;;
22713;SDS011;11524;50.846;4.326;2022-09-25T04:50:31;1.98;;;1.30;;
22713;SDS011;11524;50.846;4.326;2022-09-25T04:52:58;3.47;;;1.27;;
22713;SDS011;11524;50.846;4.326;2022-09-25T04:55:24;2.80;;;1.08;;
22713;SDS011;11524;50.846;4.326;2022-09-25T04:57:54;2.92;;;1.40;;
22713;SDS011;11524;50.846;4.326;2022-09-25T05:00:22;2.58;;;1.40;;
22713;SDS011;11524;50.846;4.326;2022-09-25T05:02:50;2.97;;;1.38;;
22713;SDS011;11524;50.846;4.326;2022-09-25T05:05:16;3.58;;;1.50;;
22713;SDS011;11524;50.846;4.326;2022-09-25T05:07:49;1.40;;;1.00;;
22713;SDS011;11524;50.846;4.326;2022-09-25T05:10:20;2.90;;;1.27;;
22713;SDS011;11524;50.846;4.326;2022-09-25T05:12:55;3.97;;;1.30;;
22713;SDS011;11524;50.846;4.326;2022-09-25T05:15:22;2.72;;;1.23;;
22713;SDS011;11524;50.846;4.326;2022-09-25T05:17:48;2.88;;;1.30;;
22713;SDS011;11524;50.846;4.326;2022-09-25T05:20:16;2.70;;;1.23;;
22713;SDS011;11524;50.846;4.326;2022-09-25T05:22:42;3.00;;;1.38;;
22713;SDS011;11524;50.846;4.326;2022-09-25T05:25:08;3.20;;;1.48;;
22713;SDS011;11524;50.846;4.326;2022-09-25T05:27:34;2.80;;;1.38;;
22713;SDS011;11524;50.846;4.326;2022-09-25T05:29:59;2.67;;;1.30;;
22713;SDS011;11524;50.846;4.326;2022-09-25T05:32:26;3.17;;;1.40;;
22713;SDS011;11524;50.846;4.326;2022-09-25T05:34:51;2.75;;;1.25;;
22713;SDS011;11524;50.846;4.326;2022-09-25T05:37:17;3.00;;;1.48;;
22713;SDS011;11524;50.846;4.326;2022-09-25T05:39:43;4.88;;;1.48;;
22713;SDS011;11524;50.846;4.326;2022-09-25T05:42:08;3.92;;;1.65;;
22713;SDS011;11524;50.846;4.326;2022-09-25T05:44:34;2.88;;;1.30;;
22713;SDS011;11524;50.846;4.326;2022-09-25T05:47:00;3.75;;;1.20;;
22713;SDS011;11524;50.846;4.326;2022-09-25T05:49:25;2.53;;;1.30;;
22713;SDS011;11524;50.846;4.326;2022-09-25T05:51:52;4.03;;;1.48;;
22713;SDS011;11524;50.846;4.326;2022-09-25T05:54:18;6.53;;;1.48;;
22713;SDS011;11524;50.846;4.326;2022-09-25T05:56:43;4.25;;;1.50;;
22713;SDS011;11524;50.846;4.326;2022-09-25T05:59:09;4.03;;;1.55;;
22713;SDS011;11524;50.846;4.326;2022-09-25T06:01:35;2.40;;;1.38;;
22713;SDS011;11524;50.846;4.326;2022-09-25T06:04:00;3.33;;;1.60;;
22713;SDS011;11524;50.846;4.326;2022-09-25T06:06:26;3.08;;;1.52;;
22713;SDS011;11524;50.846;4.326;2022-09-25T06:08:55;1.85;;;1.30;;
22713;SDS011;11524;50.846;4.326;2022-09-25T06:11:21;3.92;;;1.67;;
22713;SDS011;11524;50.846;4.326;2022-09-25T06:13:47;2.10;;;1.10;;
22713;SDS011;11524;50.846;4.326;2022-09-25T06:16:14;3.42;;;1.00;;
22713;SDS011;11524;50.846;4.326;2022-09-25T06:18:44;2.78;;;0.80;;
22713;SDS011;11524;50.846;4.326;2022-09-25T06:21:11;2.33;;;0.90;;
22713;SDS011;11524;50.846;4.326;2022-09-25T06:23:37;1.00;;;0.90;;
22713;SDS011;11524;50.846;4.326;2022-09-25T06:26:04;5.78;;;1.10;;
22713;SDS011;11524;50.846;4.326;2022-09-25T06:28:31;3.03;;;1.30;;
22713;SDS011;11524;50.846;4.326;2022-09-25T06:31:01;3.58;;;1.00;;
22713;SDS011;11524;50.846;4.326;2022-09-25T06:33:27;2.60;;;1.20;;
22713;SDS011;11524;50.846;4.326;2022-09-25T06:35:53;4.95;;;1.10;;
22713;SDS011;11524;50.846;4.326;2022-09-25T06:38:18;2.42;;;1.10;;
22713;SDS011;11524;50.846;4.326;2022-09-25T06:40:44;4.18;;;1.13;;
22713;SDS011;11524;50.846;4.326;2022-09-25T06:43:11;3.28;;;1.50;;
22713;SDS011;11524;50.846;4.326;2022-09-25T06:45:38;3.55;;;1.13;;
22713;SDS011;11524;50.846;4.326;2022-09-25T06:48:08;4.10;;;1.73;;
22713;SDS011;11524;50.846;4.326;2022-09-25T06:50:59;2.28;;;1.25;;
22713;SDS011;11524;50.846;4.326;2022-09-25T06:53:25;4.47;;;1.50;;
22713;SDS011;11524;50.846;4.326;2022-09-25T06:55:51;3.22;;;1.33;;
22713;SDS011;11524;50.846;4.326;2022-09-25T06:58:20;3.13;;;1.45;;
22713;SDS011;11524;50.846;4.326;2022-09-25T07:00:48;3.08;;;1.30;;
22713;SDS011;11524;50.846;4.326;2022-09-25T07:03:15;3.30;;;1.52;;
22713;SDS011;11524;50.846;4.326;2022-09-25T07:05:59;3.25;;;1.95;;
22713;SDS011;11524;50.846;4.326;2022-09-25T07:08:29;7.28;;;2.80;;
22713;SDS011;11524;50.846;4.326;2022-09-25T07:10:55;7.80;;;3.05;;
22713;SDS011;11524;50.846;4.326;2022-09-25T07:13:23;11.80;;;2.80;;
22713;SDS011;11524;50.846;4.326;2022-09-25T07:15:58;11.75;;;3.00;;
22713;SDS011;11524;50.846;4.326;2022-09-25T07:18:44;8.25;;;2.72;;
22713;SDS011;11524;50.846;4.326;2022-09-25T07:21:14;12.82;;;3.33;;
22713;SDS011;11524;50.846;4.326;2022-09-25T07:23:41;7.82;;;3.13;;
22713;SDS011;11524;50.846;4.326;2022-09-25T07:26:09;4.97;;;2.92;;
22713;SDS011;11524;50.846;4.326;2022-09-25T07:28:41;7.53;;;3.08;;
22713;SDS011;11524;50.846;4.326;2022-09-25T07:33:43;6.43;;;3.13;;
22713;SDS011;11524;50.846;4.326;2022-09-25T07:36:28;7.07;;;3.35;;
22713;SDS011;11524;50.846;4.326;2022-09-25T07:38:53;7.00;;;3.20;;
22713;SDS011;11524;50.846;4.326;2022-09-25T07:41:19;6.47;;;2.72;;
22713;SDS011;11524;50.846;4.326;2022-09-25T07:43:55;6.78;;;2.97;;
22713;SDS011;11524;50.846;4.326;2022-09-25T07:46:25;5.00;;;3.17;;
22713;SDS011;11524;50.846;4.326;2022-09-25T07:48:57;8.55;;;3.00;;
22713;SDS011;11524;50.846;4.326;2022-09-25T07:51:26;6.93;;;3.00;;
22713;SDS011;11524;50.846;4.326;2022-09-25T07:53:52;7.50;;;2.80;;
22713;SDS011;11524;50.846;4.326;2022-09-25T07:56:18;8.48;;;2.58;;
22713;SDS011;11524;50.846;4.326;2022-09-25T07:58:44;7.28;;;2.80;;
22713;SDS011;11524;50.846;4.326;2022-09-25T08:01:10;4.72;;;2.33;;
22713;SDS011;11524;50.846;4.326;2022-09-25T08:03:37;6.93;;;2.90;;
22713;SDS011;11524;50.846;4.326;2022-09-25T08:06:04;12.27;;;3.22;;
22713;SDS011;11524;50.846;4.326;2022-09-25T08:08:33;6.13;;;2.22;;
22713;SDS011;11524;50.846;4.326;2022-09-25T08:11:00;16.55;;;2.80;;
22713;SDS011;11524;50.846;4.326;2022-09-25T08:13:27;5.22;;;2.10;;
22713;SDS011;11524;50.846;4.326;2022-09-25T08:15:53;8.70;;;2.33;;
22713;SDS011;11524;50.846;4.326;2022-09-25T08:18:20;13.52;;;1.90;;
22713;SDS011;11524;50.846;4.326;2022-09-25T08:20:46;6.85;;;2.22;;
22713;SDS011;11524;50.846;4.326;2022-09-25T08:23:12;6.57;;;2.10;;
22713;SDS011;11524;50.846;4.326;2022-09-25T08:25:37;14.50;;;2.40;;
22713;SDS011;11524;50.846;4.326;2022-09-25T08:28:03;17.55;;;2.45;;
22713;SDS011;11524;50.846;4.326;2022-09-25T08:30:44;13.75;;;2.60;;
22713;SDS011;11524;50.846;4.326;2022-09-25T08:33:10;16.38;;;3.15;;
22713;SDS011;11524;50.846;4.326;2022-09-25T08:35:39;18.77;;;2.58;;
22713;SDS011;11524;50.846;4.326;2022-09-25T08:38:05;17.27;;;2.58;;
22713;SDS011;11524;50.846;4.326;2022-09-25T08:40:31;14.20;;;2.78;;
22713;SDS011;11524;50.846;4.326;2022-09-25T08:43:01;11.30;;;2.28;;
22713;SDS011;11524;50.846;4.326;2022-09-25T08:45:34;16.05;;;2.63;;
22713;SDS011;11524;50.846;4.326;2022-09-25T08:48:24;12.10;;;2.30;;
22713;SDS011;11524;50.846;4.326;2022-09-25T08:51:12;16.30;;;2.42;;
22713;SDS011;11524;50.846;4.326;2022-09-25T08:53:38;9.35;;;2.55;;
22713;SDS011;11524;50.846;4.326;2022-09-25T08:56:08;7.97;;;2.10;;
22713;SDS011;11524;50.846;4.326;2022-09-25T08:58:39;9.40;;;2.10;;
22713;SDS011;11524;50.846;4.326;2022-09-25T09:01:18;7.03;;;2.05;;
22713;SDS011;11524;50.846;4.326;2022-09-25T09:06:30;9.50;;;2.15;;
22713;SDS011;11524;50.846;4.326;2022-09-25T09:08:59;7.20;;;2.20;;
22713;SDS011;11524;50.846;4.326;2022-09-25T09:11:40;10.45;;;2.13;;
22713;SDS011;11524;50.846;4.326;2022-09-25T09:14:14;11.50;;;2.45;;
22713;SDS011;11524;50.846;4.326;2022-09-25T09:19:15;8.03;;;1.83;;
22713;SDS011;11524;50.846;4.326;2022-09-25T09:21:46;6.93;;;2.00;;
22713;SDS011;11524;50.846;4.326;2022-09-25T09:34:32;8.95;;;1.88;;
22713;SDS011;11524;50.846;4.326;2022-09-25T09:37:05;8.32;;;2.13;;
22713;SDS011;11524;50.846;4.326;2022-09-25T09:51:08;6.45;;;1.67;;
22713;SDS011;11524;50.846;4.326;2022-09-25T09:53:44;6.78;;;2.08;;
22713;SDS011;11524;50.846;4.326;2022-09-25T09:56:53;5.80;;;1.85;;
22713;SDS011;11524;50.846;4.326;2022-09-25T09:59:03;6.35;;;1.50;;
22713;SDS011;11524;50.846;4.326;2022-09-25T10:01:31;4.15;;;1.70;;
22713;SDS011;11524;50.846;4.326;2022-09-25T10:04:05;6.55;;;1.48;;
22713;SDS011;11524;50.846;4.326;2022-09-25T10:06:39;4.20;;;1.38;;
22713;SDS011;11524;50.846;4.326;2022-09-25T10:09:16;6.80;;;1.73;;
22713;SDS011;11524;50.846;4.326;2022-09-25T10:11:42;7.03;;;1.80;;
22713;SDS011;11524;50.846;4.326;2022-09-25T10:14:17;6.03;;;1.33;;
22713;SDS011;11524;50.846;4.326;2022-09-25T10:16:45;6.07;;;1.60;;
22713;SDS011;11524;50.846;4.326;2022-09-25T10:19:16;6.55;;;1.65;;
22713;SDS011;11524;50.846;4.326;2022-09-25T10:21:46;2.95;;;1.33;;
22713;SDS011;11524;50.846;4.326;2022-09-25T10:27:23;4.57;;;1.35;;
22713;SDS011;11524;50.846;4.326;2022-09-25T10:30:00;33.13;;;2.25;;
22713;SDS011;11524;50.846;4.326;2022-09-25T10:32:52;4.60;;;1.52;;
22713;SDS011;11524;50.846;4.326;2022-09-25T10:38:15;8.65;;;1.85;;
22713;SDS011;11524;50.846;4.326;2022-09-25T10:46:43;5.72;;;1.48;;
22713;SDS011;11524;50.846;4.326;2022-09-25T10:49:27;8.27;;;1.83;;
22713;SDS011;11524;50.846;4.326;2022-09-25T10:52:12;7.03;;;1.58;;
22713;SDS011;11524;50.846;4.326;2022-09-25T10:54:39;4.15;;;1.38;;
22713;SDS011;11524;50.846;4.326;2022-09-25T10:57:15;7.20;;;1.30;;
22713;SDS011;11524;50.846;4.326;2022-09-25T11:00:04;8.35;;;1.63;;
22713;SDS011;11524;50.846;4.326;2022-09-25T11:02:49;5.35;;;1.42;;
22713;SDS011;11524;50.846;4.326;2022-09-25T11:05:24;4.68;;;1.55;;
22713;SDS011;11524;50.846;4.326;2022-09-25T11:07:56;4.90;;;1.50;;
22713;SDS011;11524;50.846;4.326;2022-09-25T11:10:28;4.78;;;1.55;;
22713;SDS011;11524;50.846;4.326;2022-09-25T11:13:00;2.58;;;1.50;;
22713;SDS011;11524;50.846;4.326;2022-09-25T11:15:31;3.05;;;1.63;;
22713;SDS011;11524;50.846;4.326;2022-09-25T11:17:59;2.15;;;1.10;;
22713;SDS011;11524;50.846;4.326;2022-09-25T11:20:26;3.95;;;1.20;;
22713;SDS011;11524;50.846;4.326;2022-09-25T11:28:10;3.17;;;1.10;;
22713;SDS011;11524;50.846;4.326;2022-09-25T11:30:50;3.17;;;1.20;;
22713;SDS011;11524;50.846;4.326;2022-09-25T11:33:35;2.95;;;1.23;;
22713;SDS011;11524;50.846;4.326;2022-09-25T11:36:15;3.17;;;1.20;;
22713;SDS011;11524;50.846;4.326;2022-09-25T11:38:55;4.45;;;1.60;;
22713;SDS011;11524;50.846;4.326;2022-09-25T11:41:47;4.20;;;1.35;;
22713;SDS011;11524;50.846;4.326;2022-09-25T11:44:46;3.28;;;1.50;;
22713;SDS011;11524;50.846;4.326;2022-09-25T11:47:39;2.60;;;1.20;;
22713;SDS011;11524;50.846;4.326;2022-09-25T11:51:01;3.28;;;1.20;;
22713;SDS011;11524;50.846;4.326;2022-09-25T11:53:46;3.35;;;1.40;;
22713;SDS011;11524;50.846;4.326;2022-09-25T11:56:54;2.95;;;1.10;;
22713;SDS011;11524;50.846;4.326;2022-09-25T12:02:32;2.40;;;1.60;;
22713;SDS011;11524;50.846;4.326;2022-09-25T12:05:25;3.95;;;1.52;;
22713;SDS011;11524;50.846;4.326;2022-09-25T12:22:13;3.20;;;0.90;;
22713;SDS011;11524;50.846;4.326;2022-09-25T12:38:12;2.88;;;1.17;;
22713;SDS011;11524;50.846;4.326;2022-09-25T12:44:08;2.40;;;1.00;;
22713;SDS011;11524;50.846;4.326;2022-09-25T12:46:43;2.70;;;1.02;;
22713;SDS011;11524;50.846;4.326;2022-09-25T12:49:21;3.17;;;1.10;;
22713;SDS011;11524;50.846;4.326;2022-09-25T12:51:57;2.80;;;0.90;;
22713;SDS011;11524;50.846;4.326;2022-09-25T12:56:59;1.80;;;0.95;;
22713;SDS011;11524;50.846;4.326;2022-09-25T12:59:40;3.13;;;1.00;;
22713;SDS011;11524;50.846;4.326;2022-09-25T13:02:24;1.75;;;0.85;;
22713;SDS011;11524;50.846;4.326;2022-09-25T13:07:41;1.67;;;0.95;;
22713;SDS011;11524;50.846;4.326;2022-09-25T13:10:24;2.10;;;1.00;;
22713;SDS011;11524;50.846;4.326;2022-09-25T13:12:58;1.55;;;0.98;;
22713;SDS011;11524;50.846;4.326;2022-09-25T13:15:31;2.08;;;0.98;;
22713;SDS011;11524;50.846;4.326;2022-09-25T13:17:59;2.10;;;1.00;;
22713;SDS011;11524;50.846;4.326;2022-09-25T13:22:57;2.03;;;1.02;;
22713;SDS011;11524;50.846;4.326;2022-09-25T13:25:29;3.40;;;1.90;;
22713;SDS011;11524;50.846;4.326;2022-09-25T13:28:07;4.90;;;2.10;;
22713;SDS011;11524;50.846;4.326;2022-09-25T13:30:39;3.33;;;1.40;;
22713;SDS011;11524;50.846;4.326;2022-09-25T13:33:21;2.67;;;1.60;;
22713;SDS011;11524;50.846;4.326;2022-09-25T13:35:48;4.45;;;1.75;;
22713;SDS011;11524;50.846;4.326;2022-09-25T13:38:25;5.55;;;1.30;;
22713;SDS011;11524;50.846;4.326;2022-09-25T13:41:10;7.75;;;1.60;;
22713;SDS011;11524;50.846;4.326;2022-09-25T13:43:39;3.03;;;1.17;;
22713;SDS011;11524;50.846;4.326;2022-09-25T13:48:53;6.70;;;1.20;;
22713;SDS011;11524;50.846;4.326;2022-09-25T13:51:54;5.32;;;1.63;;
22713;SDS011;11524;50.846;4.326;2022-09-25T13:57:06;2.95;;;1.15;;
22713;SDS011;11524;50.846;4.326;2022-09-25T13:59:34;9.02;;;1.48;;
22713;SDS011;11524;50.846;4.326;2022-09-25T14:05:25;4.05;;;0.90;;
22713;SDS011;11524;50.846;4.326;2022-09-25T14:08:02;4.97;;;1.30;;
22713;SDS011;11524;50.846;4.326;2022-09-25T14:10:36;5.10;;;1.27;;
22713;SDS011;11524;50.846;4.326;2022-09-25T14:13:11;1.90;;;1.02;;
22713;SDS011;11524;50.846;4.326;2022-09-25T14:15:40;10.15;;;1.00;;
22713;SDS011;11524;50.846;4.326;2022-09-25T14:18:08;8.20;;;1.33;;
22713;SDS011;11524;50.846;4.326;2022-09-25T14:21:00;3.40;;;1.30;;
22713;SDS011;11524;50.846;4.326;2022-09-25T14:23:32;6.47;;;1.30;;
22713;SDS011;11524;50.846;4.326;2022-09-25T14:25:59;3.75;;;1.60;;
22713;SDS011;11524;50.846;4.326;2022-09-25T14:28:26;7.50;;;2.88;;
22713;SDS011;11524;50.846;4.326;2022-09-25T14:33:56;20.25;;;9.93;;
22713;SDS011;11524;50.846;4.326;2022-09-25T14:43:01;36.10;;;13.65;;
22713;SDS011;11524;50.846;4.326;2022-09-25T14:48:17;31.88;;;14.13;;
22713;SDS011;11524;50.846;4.326;2022-09-25T14:50:51;24.80;;;11.55;;
22713;SDS011;11524;50.846;4.326;2022-09-25T14:53:22;32.57;;;13.20;;
22713;SDS011;11524;50.846;4.326;2022-09-25T14:56:01;35.67;;;15.95;;
22713;SDS011;11524;50.846;4.326;2022-09-25T14:58:45;34.15;;;14.13;;
22713;SDS011;11524;50.846;4.326;2022-09-25T15:01:27;33.85;;;14.90;;
22713;SDS011;11524;50.846;4.326;2022-09-25T15:03:58;25.13;;;11.80;;
22713;SDS011;11524;50.846;4.326;2022-09-25T15:06:26;36.83;;;16.67;;
22713;SDS011;11524;50.846;4.326;2022-09-25T15:08:56;35.65;;;16.83;;
22713;SDS011;11524;50.846;4.326;2022-09-25T15:11:25;42.60;;;16.98;;
22713;SDS011;11524;50.846;4.326;2022-09-25T15:14:09;38.38;;;16.15;;
22713;SDS011;11524;50.846;4.326;2022-09-25T15:16:40;29.88;;;14.45;;
22713;SDS011;11524;50.846;4.326;2022-09-25T15:19:30;38.97;;;16.10;;
22713;SDS011;11524;50.846;4.326;2022-09-25T15:21:58;36.92;;;15.55;;
22713;SDS011;11524;50.846;4.326;2022-09-25T15:24:26;29.73;;;13.40;;
22713;SDS011;11524;50.846;4.326;2022-09-25T15:26:56;27.88;;;12.88;;
22713;SDS011;11524;50.846;4.326;2022-09-25T15:29:27;26.37;;;13.10;;
22713;SDS011;11524;50.846;4.326;2022-09-25T15:31:57;27.60;;;13.55;;
22713;SDS011;11524;50.846;4.326;2022-09-25T15:34:24;29.40;;;13.38;;
22713;SDS011;11524;50.846;4.326;2022-09-25T15:39:40;29.05;;;11.88;;
22713;SDS011;11524;50.846;4.326;2022-09-25T15:42:09;24.95;;;10.70;;
22713;SDS011;11524;50.846;4.326;2022-09-25T15:44:37;21.42;;;10.13;;
22713;SDS011;11524;50.846;4.326;2022-09-25T15:47:05;19.60;;;9.88;;
22713;SDS011;11524;50.846;4.326;2022-09-25T15:49:54;17.83;;;8.70;;
22713;SDS011;11524;50.846;4.326;2022-09-25T15:52:21;19.10;;;8.80;;
22713;SDS011;11524;50.846;4.326;2022-09-25T15:57:50;16.23;;;7.57;;
22713;SDS011;11524;50.846;4.326;2022-09-25T16:00:24;13.82;;;6.75;;
22713;SDS011;11524;50.846;4.326;2022-09-25T16:03:13;12.25;;;6.18;;
22713;SDS011;11524;50.846;4.326;2022-09-25T16:06:01;10.98;;;5.40;;
22713;SDS011;11524;50.846;4.326;2022-09-25T16:11:14;10.00;;;5.13;;
22713;SDS011;11524;50.846;4.326;2022-09-25T16:13:51;12.85;;;5.60;;
22713;SDS011;11524;50.846;4.326;2022-09-25T16:16:36;11.00;;;5.43;;
22713;SDS011;11524;50.846;4.326;2022-09-25T16:19:27;10.40;;;4.60;;
22713;SDS011;11524;50.846;4.326;2022-09-25T16:21:57;8.43;;;4.30;;
22713;SDS011;11524;50.846;4.326;2022-09-25T16:24:25;10.30;;;3.88;;
22713;SDS011;11524;50.846;4.326;2022-09-25T16:26:59;9.95;;;3.75;;
22713;SDS011;11524;50.846;4.326;2022-09-25T16:29:28;6.88;;;3.55;;
22713;SDS011;11524;50.846;4.326;2022-09-25T16:32:00;6.72;;;3.13;;
22713;SDS011;11524;50.846;4.326;2022-09-25T16:34:34;7.50;;;3.47;;
22713;SDS011;11524;50.846;4.326;2022-09-25T16:37:02;7.05;;;2.85;;
22713;SDS011;11524;50.846;4.326;2022-09-25T16:44:49;7.40;;;3.10;;
22713;SDS011;11524;50.846;4.326;2022-09-25T16:47:27;5.80;;;2.50;;
22713;SDS011;11524;50.846;4.326;2022-09-25T16:49:53;4.60;;;2.63;;
22713;SDS011;11524;50.846;4.326;2022-09-25T16:52:19;4.95;;;1.80;;
22713;SDS011;11524;50.846;4.326;2022-09-25T16:54:47;3.80;;;2.13;;
22713;SDS011;11524;50.846;4.326;2022-09-25T16:57:22;5.75;;;2.08;;
22713;SDS011;11524;50.846;4.326;2022-09-25T16:59:49;3.55;;;2.10;;
22713;SDS011;11524;50.846;4.326;2022-09-25T17:02:29;5.00;;;2.15;;
22713;SDS011;11524;50.846;4.326;2022-09-25T17:05:04;6.82;;;1.75;;
22713;SDS011;11524;50.846;4.326;2022-09-25T17:07:32;3.90;;;1.52;;
22713;SDS011;11524;50.846;4.326;2022-09-25T17:10:00;5.20;;;1.92;;
22713;SDS011;11524;50.846;4.326;2022-09-25T17:12:28;3.75;;;1.80;;
22713;SDS011;11524;50.846;4.326;2022-09-25T17:14:55;3.70;;;1.70;;
22713;SDS011;11524;50.846;4.326;2022-09-25T17:17:21;2.95;;;1.65;;
22713;SDS011;11524;50.846;4.326;2022-09-25T17:19:47;3.67;;;1.80;;
22713;SDS011;11524;50.846;4.326;2022-09-25T17:22:14;4.20;;;2.08;;
22713;SDS011;11524;50.846;4.326;2022-09-25T17:24:43;3.38;;;1.60;;
22713;SDS011;11524;50.846;4.326;2022-09-25T17:27:15;4.35;;;2.08;;
22713;SDS011;11524;50.846;4.326;2022-09-25T17:29:41;3.72;;;2.10;;
22713;SDS011;11524;50.846;4.326;2022-09-25T17:32:13;3.60;;;1.90;;
22713;SDS011;11524;50.846;4.326;2022-09-25T17:34:41;4.38;;;1.77;;
22713;SDS011;11524;50.846;4.326;2022-09-25T17:37:08;5.68;;;1.98;;
22713;SDS011;11524;50.846;4.326;2022-09-25T17:39:35;4.18;;;2.17;;
22713;SDS011;11524;50.846;4.326;2022-09-25T17:42:01;4.50;;;2.13;;